OJAI/AMM METAR and TAF weather

Enter ICAO airport designator
Station Type Date Time Source
OJAI METAR 2021/09/23 18:00 UTC NOAA

OJAI 231800Z 27008KT 6000 SCT035 21/13 Q1013 NOSIG


Station Type Date Time Source
OJAI Decoded METAR 2021/09/23 18:00 UTC NOAA

Queen Alia Airport, Jordan (OJAI) 31-40N 035-58E
Sep 23, 2021 - 02:00 PM EDT / 2021.09.23 1800 UTC
Wind: from the W (270 degrees) at 9 MPH (8 KT):0
Visibility: 3 mile(s):0
Sky conditions: partly cloudy
Temperature: 69 F (21 C)
Dew Point: 55 F (13 C)
Relative Humidity: 60%
Pressure (altimeter): 29.91 in. Hg (1013 hPa)
ob: OJAI 231800Z 27008KT 6000 SCT035 21/13 Q1013 NOSIG
cycle: 18

Station Type Date Time Source
OJAI TAF 2021/09/23 18:29 UTC NOAA

TAF OJAI 231602Z 2318/2424 29012KT 5000 HZ SCT035 PROB40
TEMPO 2400/2409 27020KT 4000 -RA SCT020 SCT025

Example: see airport list